sensor_id;sensor_type;location;lat;lon;timestamp;P1;durP1;ratioP1;P2;durP2;ratioP2
5937;SDS011;2994;51.220;4.412;2023-04-03T00:01:05;7.27;;;6.57;;
5937;SDS011;2994;51.220;4.412;2023-04-03T00:03:31;7.47;;;6.77;;
5937;SDS011;2994;51.220;4.412;2023-04-03T00:05:56;9.80;;;7.43;;
5937;SDS011;2994;51.220;4.412;2023-04-03T00:08:22;9.60;;;6.73;;
5937;SDS011;2994;51.220;4.412;2023-04-03T00:10:48;7.93;;;7.10;;
5937;SDS011;2994;51.220;4.412;2023-04-03T00:13:13;8.07;;;6.37;;
5937;SDS011;2994;51.220;4.412;2023-04-03T00:15:39;8.83;;;7.10;;
5937;SDS011;2994;51.220;4.412;2023-04-03T00:18:05;7.77;;;7.07;;
5937;SDS011;2994;51.220;4.412;2023-04-03T00:20:31;7.90;;;7.17;;
5937;SDS011;2994;51.220;4.412;2023-04-03T00:22:57;7.20;;;6.50;;
5937;SDS011;2994;51.220;4.412;2023-04-03T00:25:22;9.97;;;7.37;;
5937;SDS011;2994;51.220;4.412;2023-04-03T00:27:48;7.20;;;6.50;;
5937;SDS011;2994;51.220;4.412;2023-04-03T00:30:15;8.53;;;6.27;;
5937;SDS011;2994;51.220;4.412;2023-04-03T00:32:42;7.87;;;7.07;;
5937;SDS011;2994;51.220;4.412;2023-04-03T00:35:08;6.63;;;6.13;;
5937;SDS011;2994;51.220;4.412;2023-04-03T00:37:34;7.37;;;6.73;;
5937;SDS011;2994;51.220;4.412;2023-04-03T00:40:00;6.60;;;5.93;;
5937;SDS011;2994;51.220;4.412;2023-04-03T00:42:26;7.10;;;6.40;;
5937;SDS011;2994;51.220;4.412;2023-04-03T00:47:20;7.27;;;6.57;;
5937;SDS011;2994;51.220;4.412;2023-04-03T00:49:46;6.30;;;5.70;;
5937;SDS011;2994;51.220;4.412;2023-04-03T00:52:13;7.30;;;6.60;;
5937;SDS011;2994;51.220;4.412;2023-04-03T00:54:43;8.33;;;6.83;;
5937;SDS011;2994;51.220;4.412;2023-04-03T00:57:10;7.10;;;5.70;;
5937;SDS011;2994;51.220;4.412;2023-04-03T00:59:38;6.93;;;5.97;;
5937;SDS011;2994;51.220;4.412;2023-04-03T01:02:15;7.93;;;6.17;;
5937;SDS011;2994;51.220;4.412;2023-04-03T01:04:42;7.67;;;5.60;;
5937;SDS011;2994;51.220;4.412;2023-04-03T01:07:09;5.87;;;5.37;;
5937;SDS011;2994;51.220;4.412;2023-04-03T01:09:39;6.30;;;5.70;;
5937;SDS011;2994;51.220;4.412;2023-04-03T01:12:22;7.07;;;6.47;;
5937;SDS011;2994;51.220;4.412;2023-04-03T01:14:49;6.93;;;6.00;;
5937;SDS011;2994;51.220;4.412;2023-04-03T01:22:55;6.60;;;6.00;;
5937;SDS011;2994;51.220;4.412;2023-04-03T01:25:22;6.20;;;5.60;;
5937;SDS011;2994;51.220;4.412;2023-04-03T01:27:48;11.50;;;6.33;;
5937;SDS011;2994;51.220;4.412;2023-04-03T01:30:14;6.17;;;5.53;;
5937;SDS011;2994;51.220;4.412;2023-04-03T01:32:43;6.30;;;5.60;;
5937;SDS011;2994;51.220;4.412;2023-04-03T01:35:08;7.40;;;5.87;;
5937;SDS011;2994;51.220;4.412;2023-04-03T01:37:34;8.47;;;5.73;;
5937;SDS011;2994;51.220;4.412;2023-04-03T01:40:00;6.43;;;5.60;;
5937;SDS011;2994;51.220;4.412;2023-04-03T01:42:25;6.73;;;6.07;;
5937;SDS011;2994;51.220;4.412;2023-04-03T01:44:51;6.03;;;5.43;;
5937;SDS011;2994;51.220;4.412;2023-04-03T01:47:16;6.47;;;5.87;;
5937;SDS011;2994;51.220;4.412;2023-04-03T01:49:41;5.33;;;4.83;;
5937;SDS011;2994;51.220;4.412;2023-04-03T01:52:07;6.83;;;6.23;;
5937;SDS011;2994;51.220;4.412;2023-04-03T01:54:32;7.27;;;6.57;;
5937;SDS011;2994;51.220;4.412;2023-04-03T01:56:58;7.33;;;6.57;;
5937;SDS011;2994;51.220;4.412;2023-04-03T01:59:23;8.63;;;6.27;;
5937;SDS011;2994;51.220;4.412;2023-04-03T02:01:49;6.87;;;6.20;;
5937;SDS011;2994;51.220;4.412;2023-04-03T02:04:14;6.93;;;6.23;;
5937;SDS011;2994;51.220;4.412;2023-04-03T02:06:40;6.60;;;6.00;;
5937;SDS011;2994;51.220;4.412;2023-04-03T02:09:05;6.90;;;6.30;;
5937;SDS011;2994;51.220;4.412;2023-04-03T02:11:31;7.17;;;6.10;;
5937;SDS011;2994;51.220;4.412;2023-04-03T02:13:57;5.73;;;5.17;;
5937;SDS011;2994;51.220;4.412;2023-04-03T02:16:22;6.53;;;5.60;;
5937;SDS011;2994;51.220;4.412;2023-04-03T02:18:48;9.53;;;6.47;;
5937;SDS011;2994;51.220;4.412;2023-04-03T02:21:14;7.30;;;6.23;;
5937;SDS011;2994;51.220;4.412;2023-04-03T02:23:40;6.07;;;5.50;;
5937;SDS011;2994;51.220;4.412;2023-04-03T02:26:07;6.80;;;6.00;;
5937;SDS011;2994;51.220;4.412;2023-04-03T02:28:34;7.00;;;6.10;;
5937;SDS011;2994;51.220;4.412;2023-04-03T02:31:00;7.20;;;6.00;;
5937;SDS011;2994;51.220;4.412;2023-04-03T02:33:25;7.03;;;6.23;;
5937;SDS011;2994;51.220;4.412;2023-04-03T02:35:54;6.97;;;6.37;;
5937;SDS011;2994;51.220;4.412;2023-04-03T02:38:20;9.83;;;6.70;;
5937;SDS011;2994;51.220;4.412;2023-04-03T02:40:47;7.10;;;6.40;;
5937;SDS011;2994;51.220;4.412;2023-04-03T02:43:13;6.63;;;5.53;;
5937;SDS011;2994;51.220;4.412;2023-04-03T02:45:38;7.03;;;6.30;;
5937;SDS011;2994;51.220;4.412;2023-04-03T02:48:04;6.70;;;6.03;;
5937;SDS011;2994;51.220;4.412;2023-04-03T02:50:30;6.10;;;5.57;;
5937;SDS011;2994;51.220;4.412;2023-04-03T02:52:56;7.13;;;6.47;;
5937;SDS011;2994;51.220;4.412;2023-04-03T02:55:21;9.57;;;7.03;;
5937;SDS011;2994;51.220;4.412;2023-04-03T02:57:46;6.37;;;5.77;;
5937;SDS011;2994;51.220;4.412;2023-04-03T03:00:12;6.23;;;5.63;;
5937;SDS011;2994;51.220;4.412;2023-04-03T03:02:38;6.53;;;5.97;;
5937;SDS011;2994;51.220;4.412;2023-04-03T03:05:03;6.83;;;6.23;;
5937;SDS011;2994;51.220;4.412;2023-04-03T03:07:29;7.03;;;6.33;;
5937;SDS011;2994;51.220;4.412;2023-04-03T03:09:55;7.50;;;6.90;;
5937;SDS011;2994;51.220;4.412;2023-04-03T03:12:20;7.30;;;6.70;;
5937;SDS011;2994;51.220;4.412;2023-04-03T03:14:47;7.87;;;6.80;;
5937;SDS011;2994;51.220;4.412;2023-04-03T03:17:15;8.67;;;6.73;;
5937;SDS011;2994;51.220;4.412;2023-04-03T03:19:41;8.10;;;7.30;;
5937;SDS011;2994;51.220;4.412;2023-04-03T03:22:07;8.30;;;7.50;;
5937;SDS011;2994;51.220;4.412;2023-04-03T03:24:33;9.97;;;7.43;;
5937;SDS011;2994;51.220;4.412;2023-04-03T03:26:58;8.13;;;7.40;;
5937;SDS011;2994;51.220;4.412;2023-04-03T03:29:23;7.70;;;7.00;;
5937;SDS011;2994;51.220;4.412;2023-04-03T03:31:49;8.07;;;7.23;;
5937;SDS011;2994;51.220;4.412;2023-04-03T03:34:14;9.33;;;8.40;;
5937;SDS011;2994;51.220;4.412;2023-04-03T03:36:40;10.17;;;8.30;;
5937;SDS011;2994;51.220;4.412;2023-04-03T03:39:06;8.67;;;7.63;;
5937;SDS011;2994;51.220;4.412;2023-04-03T03:41:31;8.80;;;8.10;;
5937;SDS011;2994;51.220;4.412;2023-04-03T03:43:57;9.90;;;8.33;;
5937;SDS011;2994;51.220;4.412;2023-04-03T03:46:22;8.10;;;7.30;;
5937;SDS011;2994;51.220;4.412;2023-04-03T03:48:48;7.90;;;6.40;;
5937;SDS011;2994;51.220;4.412;2023-04-03T03:51:13;8.57;;;7.67;;
5937;SDS011;2994;51.220;4.412;2023-04-03T03:53:39;11.60;;;7.77;;
5937;SDS011;2994;51.220;4.412;2023-04-03T03:56:05;12.33;;;7.87;;
5937;SDS011;2994;51.220;4.412;2023-04-03T03:58:30;9.10;;;8.20;;
5937;SDS011;2994;51.220;4.412;2023-04-03T04:00:59;11.73;;;8.27;;
5937;SDS011;2994;51.220;4.412;2023-04-03T04:03:26;8.07;;;7.47;;
5937;SDS011;2994;51.220;4.412;2023-04-03T04:05:51;9.43;;;8.60;;
5937;SDS011;2994;51.220;4.412;2023-04-03T04:08:17;8.60;;;7.80;;
5937;SDS011;2994;51.220;4.412;2023-04-03T04:10:42;8.50;;;7.63;;
5937;SDS011;2994;51.220;4.412;2023-04-03T04:13:08;11.73;;;9.30;;
5937;SDS011;2994;51.220;4.412;2023-04-03T04:15:33;9.40;;;6.87;;
5937;SDS011;2994;51.220;4.412;2023-04-03T04:17:59;8.70;;;7.90;;
5937;SDS011;2994;51.220;4.412;2023-04-03T04:20:24;7.83;;;6.97;;
5937;SDS011;2994;51.220;4.412;2023-04-03T04:22:50;9.00;;;8.13;;
5937;SDS011;2994;51.220;4.412;2023-04-03T04:25:15;9.20;;;8.40;;
5937;SDS011;2994;51.220;4.412;2023-04-03T04:27:41;8.80;;;8.00;;
5937;SDS011;2994;51.220;4.412;2023-04-03T04:30:06;8.97;;;8.10;;
5937;SDS011;2994;51.220;4.412;2023-04-03T04:32:32;8.37;;;7.57;;
5937;SDS011;2994;51.220;4.412;2023-04-03T04:34:58;8.67;;;7.67;;
5937;SDS011;2994;51.220;4.412;2023-04-03T04:37:23;7.93;;;6.90;;
5937;SDS011;2994;51.220;4.412;2023-04-03T04:39:49;9.40;;;8.30;;
5937;SDS011;2994;51.220;4.412;2023-04-03T04:42:15;8.50;;;7.70;;
5937;SDS011;2994;51.220;4.412;2023-04-03T04:44:40;8.67;;;7.33;;
5937;SDS011;2994;51.220;4.412;2023-04-03T04:47:06;7.67;;;6.97;;
5937;SDS011;2994;51.220;4.412;2023-04-03T04:49:31;9.00;;;8.00;;
5937;SDS011;2994;51.220;4.412;2023-04-03T04:51:57;8.17;;;7.40;;
5937;SDS011;2994;51.220;4.412;2023-04-03T04:54:22;9.27;;;8.47;;
5937;SDS011;2994;51.220;4.412;2023-04-03T04:56:48;8.20;;;7.47;;
5937;SDS011;2994;51.220;4.412;2023-04-03T04:59:13;9.30;;;8.40;;
5937;SDS011;2994;51.220;4.412;2023-04-03T05:01:38;12.27;;;8.23;;
5937;SDS011;2994;51.220;4.412;2023-04-03T05:04:04;8.23;;;7.37;;
5937;SDS011;2994;51.220;4.412;2023-04-03T05:06:30;8.00;;;7.27;;
5937;SDS011;2994;51.220;4.412;2023-04-03T05:08:56;9.60;;;7.40;;
5937;SDS011;2994;51.220;4.412;2023-04-03T05:11:23;8.90;;;7.93;;
5937;SDS011;2994;51.220;4.412;2023-04-03T05:13:49;9.10;;;7.87;;
5937;SDS011;2994;51.220;4.412;2023-04-03T05:16:14;8.60;;;7.80;;
5937;SDS011;2994;51.220;4.412;2023-04-03T05:18:40;10.70;;;9.00;;
5937;SDS011;2994;51.220;4.412;2023-04-03T05:21:05;9.20;;;8.23;;
5937;SDS011;2994;51.220;4.412;2023-04-03T05:23:31;8.70;;;7.60;;
5937;SDS011;2994;51.220;4.412;2023-04-03T05:25:56;8.03;;;7.33;;
5937;SDS011;2994;51.220;4.412;2023-04-03T05:28:22;8.50;;;7.60;;
5937;SDS011;2994;51.220;4.412;2023-04-03T05:30:57;11.20;;;8.23;;
5937;SDS011;2994;51.220;4.412;2023-04-03T05:33:23;9.40;;;8.57;;
5937;SDS011;2994;51.220;4.412;2023-04-03T05:35:49;10.80;;;8.30;;
5937;SDS011;2994;51.220;4.412;2023-04-03T05:38:15;9.27;;;7.90;;
5937;SDS011;2994;51.220;4.412;2023-04-03T05:40:40;8.50;;;7.60;;
5937;SDS011;2994;51.220;4.412;2023-04-03T05:43:06;9.20;;;8.00;;
5937;SDS011;2994;51.220;4.412;2023-04-03T05:45:31;10.07;;;8.43;;
5937;SDS011;2994;51.220;4.412;2023-04-03T05:47:57;11.43;;;7.67;;
5937;SDS011;2994;51.220;4.412;2023-04-03T05:50:22;8.80;;;7.97;;
5937;SDS011;2994;51.220;4.412;2023-04-03T05:52:48;8.80;;;7.90;;
5937;SDS011;2994;51.220;4.412;2023-04-03T05:55:16;8.83;;;7.93;;
5937;SDS011;2994;51.220;4.412;2023-04-03T05:57:41;9.67;;;8.67;;
5937;SDS011;2994;51.220;4.412;2023-04-03T06:00:08;9.60;;;8.47;;
5937;SDS011;2994;51.220;4.412;2023-04-03T06:02:37;10.13;;;8.73;;
5937;SDS011;2994;51.220;4.412;2023-04-03T06:05:03;8.67;;;7.67;;
5937;SDS011;2994;51.220;4.412;2023-04-03T06:07:30;8.87;;;8.10;;
5937;SDS011;2994;51.220;4.412;2023-04-03T06:09:56;9.13;;;8.23;;
5937;SDS011;2994;51.220;4.412;2023-04-03T06:12:22;10.77;;;9.70;;
5937;SDS011;2994;51.220;4.412;2023-04-03T06:14:48;12.73;;;9.13;;
5937;SDS011;2994;51.220;4.412;2023-04-03T06:17:14;8.93;;;8.03;;
5937;SDS011;2994;51.220;4.412;2023-04-03T06:19:41;9.07;;;8.27;;
5937;SDS011;2994;51.220;4.412;2023-04-03T06:22:07;9.07;;;8.30;;
5937;SDS011;2994;51.220;4.412;2023-04-03T06:24:32;10.43;;;8.87;;
5937;SDS011;2994;51.220;4.412;2023-04-03T06:26:58;9.53;;;7.77;;
5937;SDS011;2994;51.220;4.412;2023-04-03T06:29:24;10.30;;;7.53;;
5937;SDS011;2994;51.220;4.412;2023-04-03T06:31:50;8.33;;;7.63;;
5937;SDS011;2994;51.220;4.412;2023-04-03T06:34:16;8.87;;;7.97;;
5937;SDS011;2994;51.220;4.412;2023-04-03T06:36:43;8.83;;;7.93;;
5937;SDS011;2994;51.220;4.412;2023-04-03T06:39:13;8.63;;;7.77;;
5937;SDS011;2994;51.220;4.412;2023-04-03T06:41:40;12.40;;;7.67;;
5937;SDS011;2994;51.220;4.412;2023-04-03T06:44:06;9.50;;;7.17;;
5937;SDS011;2994;51.220;4.412;2023-04-03T06:46:35;14.23;;;8.27;;
5937;SDS011;2994;51.220;4.412;2023-04-03T06:49:02;7.80;;;6.97;;
5937;SDS011;2994;51.220;4.412;2023-04-03T06:51:28;11.87;;;8.43;;
5937;SDS011;2994;51.220;4.412;2023-04-03T06:53:54;8.53;;;6.77;;
5937;SDS011;2994;51.220;4.412;2023-04-03T06:56:22;10.40;;;8.13;;
5937;SDS011;2994;51.220;4.412;2023-04-03T06:58:48;9.00;;;6.47;;
5937;SDS011;2994;51.220;4.412;2023-04-03T07:01:16;7.93;;;6.37;;
5937;SDS011;2994;51.220;4.412;2023-04-03T07:03:42;11.07;;;7.07;;
5937;SDS011;2994;51.220;4.412;2023-04-03T07:06:09;8.93;;;5.87;;
5937;SDS011;2994;51.220;4.412;2023-04-03T07:08:37;8.27;;;7.23;;
5937;SDS011;2994;51.220;4.412;2023-04-03T07:11:03;12.63;;;7.10;;
5937;SDS011;2994;51.220;4.412;2023-04-03T07:13:29;17.23;;;7.40;;
5937;SDS011;2994;51.220;4.412;2023-04-03T07:15:55;10.30;;;7.53;;
5937;SDS011;2994;51.220;4.412;2023-04-03T07:18:20;8.03;;;6.27;;
5937;SDS011;2994;51.220;4.412;2023-04-03T07:20:46;11.50;;;7.10;;
5937;SDS011;2994;51.220;4.412;2023-04-03T07:23:12;8.13;;;6.10;;
5937;SDS011;2994;51.220;4.412;2023-04-03T07:25:42;6.40;;;5.70;;
5937;SDS011;2994;51.220;4.412;2023-04-03T07:28:09;7.10;;;6.10;;
5937;SDS011;2994;51.220;4.412;2023-04-03T07:30:34;7.20;;;5.40;;
5937;SDS011;2994;51.220;4.412;2023-04-03T07:33:00;10.40;;;6.33;;
5937;SDS011;2994;51.220;4.412;2023-04-03T07:35:26;6.40;;;5.73;;
5937;SDS011;2994;51.220;4.412;2023-04-03T07:37:52;10.20;;;5.27;;
5937;SDS011;2994;51.220;4.412;2023-04-03T07:40:18;7.77;;;5.10;;
5937;SDS011;2994;51.220;4.412;2023-04-03T07:42:43;5.57;;;5.07;;
5937;SDS011;2994;51.220;4.412;2023-04-03T07:45:09;4.73;;;4.30;;
5937;SDS011;2994;51.220;4.412;2023-04-03T07:47:35;10.70;;;6.00;;
5937;SDS011;2994;51.220;4.412;2023-04-03T07:50:01;6.70;;;5.00;;
5937;SDS011;2994;51.220;4.412;2023-04-03T07:52:26;6.43;;;4.83;;
5937;SDS011;2994;51.220;4.412;2023-04-03T07:54:52;4.80;;;3.83;;
5937;SDS011;2994;51.220;4.412;2023-04-03T07:57:17;7.07;;;4.50;;
5937;SDS011;2994;51.220;4.412;2023-04-03T07:59:42;6.10;;;4.80;;
5937;SDS011;2994;51.220;4.412;2023-04-03T08:02:09;5.03;;;3.80;;
5937;SDS011;2994;51.220;4.412;2023-04-03T08:04:34;8.17;;;4.40;;
5937;SDS011;2994;51.220;4.412;2023-04-03T08:07:00;4.20;;;3.80;;
5937;SDS011;2994;51.220;4.412;2023-04-03T08:09:26;5.43;;;3.70;;
5937;SDS011;2994;51.220;4.412;2023-04-03T08:11:51;4.93;;;4.17;;
5937;SDS011;2994;51.220;4.412;2023-04-03T08:14:18;5.93;;;4.30;;
5937;SDS011;2994;51.220;4.412;2023-04-03T08:16:44;6.87;;;4.30;;
5937;SDS011;2994;51.220;4.412;2023-04-03T08:19:11;4.43;;;3.03;;
5937;SDS011;2994;51.220;4.412;2023-04-03T08:21:38;4.40;;;4.00;;
5937;SDS011;2994;51.220;4.412;2023-04-03T08:24:06;4.87;;;3.43;;
5937;SDS011;2994;51.220;4.412;2023-04-03T08:26:32;4.90;;;3.17;;
5937;SDS011;2994;51.220;4.412;2023-04-03T08:28:57;4.50;;;3.23;;
5937;SDS011;2994;51.220;4.412;2023-04-03T08:31:23;4.90;;;4.50;;
5937;SDS011;2994;51.220;4.412;2023-04-03T08:33:48;9.37;;;4.30;;
5937;SDS011;2994;51.220;4.412;2023-04-03T08:36:19;6.50;;;3.37;;
5937;SDS011;2994;51.220;4.412;2023-04-03T08:38:51;5.17;;;3.53;;
5937;SDS011;2994;51.220;4.412;2023-04-03T08:41:25;8.97;;;3.57;;
5937;SDS011;2994;51.220;4.412;2023-04-03T08:46:40;8.00;;;2.70;;
5937;SDS011;2994;51.220;4.412;2023-04-03T08:49:22;3.23;;;2.53;;
5937;SDS011;2994;51.220;4.412;2023-04-03T08:51:56;3.97;;;2.20;;
5937;SDS011;2994;51.220;4.412;2023-04-03T08:54:28;2.70;;;2.50;;
5937;SDS011;2994;51.220;4.412;2023-04-03T08:56:57;6.07;;;2.60;;
5937;SDS011;2994;51.220;4.412;2023-04-03T08:59:28;4.13;;;2.93;;
5937;SDS011;2994;51.220;4.412;2023-04-03T09:01:57;3.10;;;2.70;;
5937;SDS011;2994;51.220;4.412;2023-04-03T09:04:27;2.60;;;2.40;;
5937;SDS011;2994;51.220;4.412;2023-04-03T09:06:58;5.13;;;2.40;;
5937;SDS011;2994;51.220;4.412;2023-04-03T09:09:35;4.10;;;2.53;;
5937;SDS011;2994;51.220;4.412;2023-04-03T09:14:42;6.53;;;2.67;;
5937;SDS011;2994;51.220;4.412;2023-04-03T09:20:46;4.87;;;2.53;;
5937;SDS011;2994;51.220;4.412;2023-04-03T09:23:17;4.03;;;2.43;;
5937;SDS011;2994;51.220;4.412;2023-04-03T09:25:49;4.77;;;2.40;;
5937;SDS011;2994;51.220;4.412;2023-04-03T09:28:19;3.43;;;2.10;;
5937;SDS011;2994;51.220;4.412;2023-04-03T09:30:44;2.20;;;2.00;;
5937;SDS011;2994;51.220;4.412;2023-04-03T09:33:10;4.00;;;2.27;;
5937;SDS011;2994;51.220;4.412;2023-04-03T09:35:37;3.40;;;2.03;;
5937;SDS011;2994;51.220;4.412;2023-04-03T09:40:39;3.60;;;2.37;;
5937;SDS011;2994;51.220;4.412;2023-04-03T09:43:30;2.70;;;2.50;;
5937;SDS011;2994;51.220;4.412;2023-04-03T09:46:15;3.17;;;1.90;;
5937;SDS011;2994;51.220;4.412;2023-04-03T09:48:59;4.80;;;2.20;;
5937;SDS011;2994;51.220;4.412;2023-04-03T09:51:27;5.63;;;2.60;;
5937;SDS011;2994;51.220;4.412;2023-04-03T09:53:53;3.10;;;2.30;;
5937;SDS011;2994;51.220;4.412;2023-04-03T09:58:52;2.87;;;2.37;;
5937;SDS011;2994;51.220;4.412;2023-04-03T10:01:33;2.50;;;1.90;;
5937;SDS011;2994;51.220;4.412;2023-04-03T10:06:41;5.57;;;2.13;;
5937;SDS011;2994;51.220;4.412;2023-04-03T10:09:17;3.10;;;1.97;;
5937;SDS011;2994;51.220;4.412;2023-04-03T10:12:00;2.50;;;1.80;;
5937;SDS011;2994;51.220;4.412;2023-04-03T10:14:53;4.80;;;2.47;;
5937;SDS011;2994;51.220;4.412;2023-04-03T10:39:33;2.17;;;1.83;;
5937;SDS011;2994;51.220;4.412;2023-04-03T10:53:34;3.80;;;1.60;;
5937;SDS011;2994;51.220;4.412;2023-04-03T10:58:53;2.60;;;2.23;;
5937;SDS011;2994;51.220;4.412;2023-04-03T11:01:33;2.50;;;1.50;;
5937;SDS011;2994;51.220;4.412;2023-04-03T11:04:03;1.90;;;1.40;;
5937;SDS011;2994;51.220;4.412;2023-04-03T11:06:32;2.20;;;1.37;;
5937;SDS011;2994;51.220;4.412;2023-04-03T11:11:51;2.90;;;1.70;;
5937;SDS011;2994;51.220;4.412;2023-04-03T11:22:35;2.70;;;1.43;;
5937;SDS011;2994;51.220;4.412;2023-04-03T11:27:38;2.80;;;1.30;;
5937;SDS011;2994;51.220;4.412;2023-04-03T11:30:21;4.43;;;1.53;;
5937;SDS011;2994;51.220;4.412;2023-04-03T11:33:12;2.60;;;1.47;;
5937;SDS011;2994;51.220;4.412;2023-04-03T11:35:43;5.00;;;1.40;;
5937;SDS011;2994;51.220;4.412;2023-04-03T11:38:45;1.83;;;1.40;;
5937;SDS011;2994;51.220;4.412;2023-04-03T11:41:08;1.50;;;1.30;;
5937;SDS011;2994;51.220;4.412;2023-04-03T11:43:39;1.60;;;1.20;;
5937;SDS011;2994;51.220;4.412;2023-04-03T11:46:07;1.70;;;1.37;;
5937;SDS011;2994;51.220;4.412;2023-04-03T11:53:38;1.20;;;1.10;;
5937;SDS011;2994;51.220;4.412;2023-04-03T12:04:20;1.30;;;0.93;;
5937;SDS011;2994;51.220;4.412;2023-04-03T12:06:53;1.73;;;1.00;;
5937;SDS011;2994;51.220;4.412;2023-04-03T12:12:22;2.07;;;1.30;;
5937;SDS011;2994;51.220;4.412;2023-04-03T12:15:25;2.17;;;1.30;;
5937;SDS011;2994;51.220;4.412;2023-04-03T12:21:12;2.00;;;1.27;;
5937;SDS011;2994;51.220;4.412;2023-04-03T12:26:50;1.63;;;1.10;;
5937;SDS011;2994;51.220;4.412;2023-04-03T12:45:52;2.83;;;1.00;;
5937;SDS011;2994;51.220;4.412;2023-04-03T12:48:27;0.90;;;0.87;;
5937;SDS011;2994;51.220;4.412;2023-04-03T12:50:55;1.87;;;1.20;;
5937;SDS011;2994;51.220;4.412;2023-04-03T12:53:23;1.60;;;1.23;;
5937;SDS011;2994;51.220;4.412;2023-04-03T12:55:55;3.13;;;1.23;;
5937;SDS011;2994;51.220;4.412;2023-04-03T12:58:43;3.13;;;1.20;;
5937;SDS011;2994;51.220;4.412;2023-04-03T13:01:15;1.40;;;1.20;;
5937;SDS011;2994;51.220;4.412;2023-04-03T13:03:44;2.30;;;1.70;;
5937;SDS011;2994;51.220;4.412;2023-04-03T13:09:00;1.23;;;1.00;;
5937;SDS011;2994;51.220;4.412;2023-04-03T13:11:27;3.60;;;1.20;;
5937;SDS011;2994;51.220;4.412;2023-04-03T13:14:01;1.50;;;1.20;;
5937;SDS011;2994;51.220;4.412;2023-04-03T13:16:39;2.43;;;1.10;;
5937;SDS011;2994;51.220;4.412;2023-04-03T13:19:06;1.50;;;1.30;;
5937;SDS011;2994;51.220;4.412;2023-04-03T13:21:40;2.73;;;1.20;;
5937;SDS011;2994;51.220;4.412;2023-04-03T13:24:06;2.80;;;1.27;;
5937;SDS011;2994;51.220;4.412;2023-04-03T13:26:33;2.37;;;1.53;;
5937;SDS011;2994;51.220;4.412;2023-04-03T13:29:00;4.13;;;1.50;;
5937;SDS011;2994;51.220;4.412;2023-04-03T13:31:43;1.53;;;1.00;;
5937;SDS011;2994;51.220;4.412;2023-04-03T13:36:37;3.57;;;1.43;;
5937;SDS011;2994;51.220;4.412;2023-04-03T13:41:41;2.10;;;1.40;;
5937;SDS011;2994;51.220;4.412;2023-04-03T13:46:46;3.57;;;1.43;;
5937;SDS011;2994;51.220;4.412;2023-04-03T13:49:30;2.30;;;1.30;;
5937;SDS011;2994;51.220;4.412;2023-04-03T13:51:56;2.00;;;1.57;;
5937;SDS011;2994;51.220;4.412;2023-04-03T13:54:23;2.90;;;1.17;;
5937;SDS011;2994;51.220;4.412;2023-04-03T13:57:00;1.90;;;1.43;;
5937;SDS011;2994;51.220;4.412;2023-04-03T13:59:28;2.37;;;1.00;;
5937;SDS011;2994;51.220;4.412;2023-04-03T14:04:27;1.77;;;1.47;;
5937;SDS011;2994;51.220;4.412;2023-04-03T14:06:55;3.60;;;1.43;;
5937;SDS011;2994;51.220;4.412;2023-04-03T14:09:22;1.77;;;1.40;;
5937;SDS011;2994;51.220;4.412;2023-04-03T14:11:50;3.20;;;1.50;;
5937;SDS011;2994;51.220;4.412;2023-04-03T14:14:23;1.20;;;0.73;;
5937;SDS011;2994;51.220;4.412;2023-04-03T14:16:53;3.83;;;1.20;;
5937;SDS011;2994;51.220;4.412;2023-04-03T14:21:57;1.80;;;1.30;;
5937;SDS011;2994;51.220;4.412;2023-04-03T14:24:24;1.43;;;1.00;;
5937;SDS011;2994;51.220;4.412;2023-04-03T14:26:53;1.03;;;0.90;;
5937;SDS011;2994;51.220;4.412;2023-04-03T14:29:20;1.70;;;1.17;;
5937;SDS011;2994;51.220;4.412;2023-04-03T14:31:47;2.33;;;0.90;;
5937;SDS011;2994;51.220;4.412;2023-04-03T14:34:14;2.67;;;1.20;;
5937;SDS011;2994;51.220;4.412;2023-04-03T14:36:41;2.10;;;1.40;;
5937;SDS011;2994;51.220;4.412;2023-04-03T14:39:10;1.60;;;1.17;;
5937;SDS011;2994;51.220;4.412;2023-04-03T14:41:42;2.13;;;1.53;;
5937;SDS011;2994;51.220;4.412;2023-04-03T14:44:08;2.00;;;1.20;;
5937;SDS011;2994;51.220;4.412;2023-04-03T14:46:35;1.50;;;1.30;;
5937;SDS011;2994;51.220;4.412;2023-04-03T14:49:03;1.20;;;1.10;;
5937;SDS011;2994;51.220;4.412;2023-04-03T14:51:35;3.37;;;2.03;;
5937;SDS011;2994;51.220;4.412;2023-04-03T14:54:02;2.30;;;1.30;;
5937;SDS011;2994;51.220;4.412;2023-04-03T14:56:30;2.83;;;1.60;;
5937;SDS011;2994;51.220;4.412;2023-04-03T14:58:57;2.23;;;1.20;;
5937;SDS011;2994;51.220;4.412;2023-04-03T15:01:24;1.93;;;1.20;;
5937;SDS011;2994;51.220;4.412;2023-04-03T15:03:51;1.83;;;1.40;;
5937;SDS011;2994;51.220;4.412;2023-04-03T15:06:16;2.27;;;1.10;;
5937;SDS011;2994;51.220;4.412;2023-04-03T15:08:42;1.30;;;1.20;;
5937;SDS011;2994;51.220;4.412;2023-04-03T15:11:10;1.97;;;1.23;;
5937;SDS011;2994;51.220;4.412;2023-04-03T15:13:36;2.30;;;1.47;;
5937;SDS011;2994;51.220;4.412;2023-04-03T15:16:02;2.40;;;1.47;;
5937;SDS011;2994;51.220;4.412;2023-04-03T15:18:29;3.20;;;1.87;;
5937;SDS011;2994;51.220;4.412;2023-04-03T15:21:00;2.13;;;1.47;;
5937;SDS011;2994;51.220;4.412;2023-04-03T15:23:25;2.90;;;1.30;;
5937;SDS011;2994;51.220;4.412;2023-04-03T15:25:53;2.13;;;1.13;;
5937;SDS011;2994;51.220;4.412;2023-04-03T15:28:30;8.10;;;1.47;;
5937;SDS011;2994;51.220;4.412;2023-04-03T15:30:58;1.50;;;1.40;;
5937;SDS011;2994;51.220;4.412;2023-04-03T15:33:24;4.10;;;1.63;;
5937;SDS011;2994;51.220;4.412;2023-04-03T15:35:50;2.37;;;1.53;;
5937;SDS011;2994;51.220;4.412;2023-04-03T15:38:15;1.63;;;1.53;;
5937;SDS011;2994;51.220;4.412;2023-04-03T15:40:41;2.07;;;1.33;;
5937;SDS011;2994;51.220;4.412;2023-04-03T15:43:08;2.03;;;1.50;;
5937;SDS011;2994;51.220;4.412;2023-04-03T15:45:34;2.33;;;1.50;;
5937;SDS011;2994;51.220;4.412;2023-04-03T15:48:01;2.87;;;1.20;;
5937;SDS011;2994;51.220;4.412;2023-04-03T15:50:28;2.07;;;1.70;;
5937;SDS011;2994;51.220;4.412;2023-04-03T15:52:53;2.80;;;1.67;;
5937;SDS011;2994;51.220;4.412;2023-04-03T15:55:23;2.70;;;1.87;;
5937;SDS011;2994;51.220;4.412;2023-04-03T15:57:49;3.07;;;1.50;;
5937;SDS011;2994;51.220;4.412;2023-04-03T16:00:16;1.50;;;1.40;;
5937;SDS011;2994;51.220;4.412;2023-04-03T16:02:42;1.87;;;1.50;;
5937;SDS011;2994;51.220;4.412;2023-04-03T16:05:10;1.90;;;1.37;;
5937;SDS011;2994;51.220;4.412;2023-04-03T16:07:37;1.60;;;1.50;;
5937;SDS011;2994;51.220;4.412;2023-04-03T16:10:04;5.40;;;2.00;;
5937;SDS011;2994;51.220;4.412;2023-04-03T16:12:30;2.47;;;1.40;;
5937;SDS011;2994;51.220;4.412;2023-04-03T16:14:55;1.83;;;1.50;;
5937;SDS011;2994;51.220;4.412;2023-04-03T16:17:21;2.53;;;1.60;;
5937;SDS011;2994;51.220;4.412;2023-04-03T16:19:47;2.80;;;1.87;;
5937;SDS011;2994;51.220;4.412;2023-04-03T16:22:12;1.90;;;1.43;;
5937;SDS011;2994;51.220;4.412;2023-04-03T16:24:38;2.77;;;1.60;;
5937;SDS011;2994;51.220;4.412;2023-04-03T16:27:04;3.67;;;1.80;;
5937;SDS011;2994;51.220;4.412;2023-04-03T16:29:29;2.80;;;1.70;;
5937;SDS011;2994;51.220;4.412;2023-04-03T16:31:54;1.80;;;1.40;;
5937;SDS011;2994;51.220;4.412;2023-04-03T16:34:21;2.17;;;1.97;;
5937;SDS011;2994;51.220;4.412;2023-04-03T16:36:48;2.23;;;1.97;;
5937;SDS011;2994;51.220;4.412;2023-04-03T16:39:13;2.27;;;1.70;;
5937;SDS011;2994;51.220;4.412;2023-04-03T16:41:39;1.60;;;1.40;;
5937;SDS011;2994;51.220;4.412;2023-04-03T16:44:04;2.17;;;1.63;;
5937;SDS011;2994;51.220;4.412;2023-04-03T16:46:32;2.80;;;1.90;;
5937;SDS011;2994;51.220;4.412;2023-04-03T16:48:57;2.60;;;1.80;;
5937;SDS011;2994;51.220;4.412;2023-04-03T16:51:23;4.27;;;2.20;;
5937;SDS011;2994;51.220;4.412;2023-04-03T16:53:48;2.00;;;1.60;;
5937;SDS011;2994;51.220;4.412;2023-04-03T16:56:14;4.13;;;2.03;;
5937;SDS011;2994;51.220;4.412;2023-04-03T16:58:39;3.90;;;2.17;;
5937;SDS011;2994;51.220;4.412;2023-04-03T17:01:09;1.60;;;1.50;;
5937;SDS011;2994;51.220;4.412;2023-04-03T17:03:39;3.30;;;2.83;;
5937;SDS011;2994;51.220;4.412;2023-04-03T17:06:05;3.80;;;1.80;;
5937;SDS011;2994;51.220;4.412;2023-04-03T17:08:30;2.63;;;2.20;;
5937;SDS011;2994;51.220;4.412;2023-04-03T17:10:56;3.10;;;1.80;;
5937;SDS011;2994;51.220;4.412;2023-04-03T17:13:21;4.17;;;2.30;;
5937;SDS011;2994;51.220;4.412;2023-04-03T17:15:47;2.83;;;1.90;;
5937;SDS011;2994;51.220;4.412;2023-04-03T17:18:13;4.13;;;2.10;;
5937;SDS011;2994;51.220;4.412;2023-04-03T17:20:38;2.90;;;1.73;;
5937;SDS011;2994;51.220;4.412;2023-04-03T17:23:04;2.50;;;1.63;;
5937;SDS011;2994;51.220;4.412;2023-04-03T17:25:31;2.33;;;1.93;;
5937;SDS011;2994;51.220;4.412;2023-04-03T17:27:56;4.43;;;2.37;;